sensor_id;sensor_type;location;lat;lon;timestamp;P1;durP1;ratioP1;P2;durP2;ratioP2
16197;SDS011;8206;51.440;6.914;2023-04-24T00:00:46;0.47;;;0.47;;
16197;SDS011;8206;51.440;6.914;2023-04-24T00:03:13;0.33;;;0.33;;
16197;SDS011;8206;51.440;6.914;2023-04-24T00:05:40;0.20;;;0.20;;
16197;SDS011;8206;51.440;6.914;2023-04-24T00:08:07;0.10;;;0.10;;
16197;SDS011;8206;51.440;6.914;2023-04-24T00:10:35;0.40;;;0.40;;
16197;SDS011;8206;51.440;6.914;2023-04-24T00:13:02;0.40;;;0.40;;
16197;SDS011;8206;51.440;6.914;2023-04-24T00:15:28;0.33;;;0.33;;
16197;SDS011;8206;51.440;6.914;2023-04-24T00:17:56;4.43;;;0.80;;
16197;SDS011;8206;51.440;6.914;2023-04-24T00:20:22;0.40;;;0.40;;
16197;SDS011;8206;51.440;6.914;2023-04-24T00:22:49;0.40;;;0.40;;
16197;SDS011;8206;51.440;6.914;2023-04-24T00:25:16;0.30;;;0.30;;
16197;SDS011;8206;51.440;6.914;2023-04-24T00:27:44;0.37;;;0.37;;
16197;SDS011;8206;51.440;6.914;2023-04-24T00:30:11;0.33;;;0.33;;
16197;SDS011;8206;51.440;6.914;2023-04-24T00:32:38;0.60;;;0.60;;
16197;SDS011;8206;51.440;6.914;2023-04-24T00:35:05;0.40;;;0.40;;
16197;SDS011;8206;51.440;6.914;2023-04-24T00:37:32;0.30;;;0.30;;
16197;SDS011;8206;51.440;6.914;2023-04-24T00:39:59;0.60;;;0.60;;
16197;SDS011;8206;51.440;6.914;2023-04-24T00:42:25;0.30;;;0.30;;
16197;SDS011;8206;51.440;6.914;2023-04-24T00:44:54;0.33;;;0.33;;
16197;SDS011;8206;51.440;6.914;2023-04-24T00:47:21;1.63;;;1.00;;
16197;SDS011;8206;51.440;6.914;2023-04-24T00:49:49;0.63;;;0.63;;
16197;SDS011;8206;51.440;6.914;2023-04-24T00:52:16;0.90;;;0.90;;
16197;SDS011;8206;51.440;6.914;2023-04-24T00:54:43;0.50;;;0.50;;
16197;SDS011;8206;51.440;6.914;2023-04-24T00:57:10;3.33;;;0.93;;
16197;SDS011;8206;51.440;6.914;2023-04-24T00:59:37;1.17;;;0.43;;
16197;SDS011;8206;51.440;6.914;2023-04-24T01:02:07;0.30;;;0.30;;
16197;SDS011;8206;51.440;6.914;2023-04-24T01:04:35;5.73;;;1.17;;
16197;SDS011;8206;51.440;6.914;2023-04-24T01:07:02;0.63;;;0.63;;
16197;SDS011;8206;51.440;6.914;2023-04-24T01:09:34;0.63;;;0.63;;
16197;SDS011;8206;51.440;6.914;2023-04-24T01:12:02;0.40;;;0.40;;
16197;SDS011;8206;51.440;6.914;2023-04-24T01:14:29;3.60;;;1.17;;
16197;SDS011;8206;51.440;6.914;2023-04-24T01:16:56;0.97;;;0.97;;
16197;SDS011;8206;51.440;6.914;2023-04-24T01:19:24;0.70;;;0.70;;
16197;SDS011;8206;51.440;6.914;2023-04-24T01:21:52;0.30;;;0.30;;
16197;SDS011;8206;51.440;6.914;2023-04-24T01:24:21;0.70;;;0.70;;
16197;SDS011;8206;51.440;6.914;2023-04-24T01:26:48;1.13;;;1.13;;
16197;SDS011;8206;51.440;6.914;2023-04-24T01:29:15;3.90;;;0.97;;
16197;SDS011;8206;51.440;6.914;2023-04-24T01:31:42;1.33;;;1.03;;
16197;SDS011;8206;51.440;6.914;2023-04-24T01:34:09;0.87;;;0.87;;
16197;SDS011;8206;51.440;6.914;2023-04-24T01:36:36;1.10;;;0.90;;
16197;SDS011;8206;51.440;6.914;2023-04-24T01:39:05;0.70;;;0.70;;
16197;SDS011;8206;51.440;6.914;2023-04-24T01:41:34;0.40;;;0.40;;
16197;SDS011;8206;51.440;6.914;2023-04-24T01:44:00;0.30;;;0.30;;
16197;SDS011;8206;51.440;6.914;2023-04-24T01:46:28;0.93;;;0.93;;
16197;SDS011;8206;51.440;6.914;2023-04-24T01:48:55;0.90;;;0.90;;
16197;SDS011;8206;51.440;6.914;2023-04-24T01:51:22;2.00;;;1.50;;
16197;SDS011;8206;51.440;6.914;2023-04-24T01:53:49;1.37;;;1.27;;
16197;SDS011;8206;51.440;6.914;2023-04-24T01:56:16;0.97;;;0.73;;
16197;SDS011;8206;51.440;6.914;2023-04-24T01:58:44;1.00;;;1.00;;
16197;SDS011;8206;51.440;6.914;2023-04-24T02:01:14;1.80;;;0.80;;
16197;SDS011;8206;51.440;6.914;2023-04-24T02:03:43;1.97;;;1.23;;
16197;SDS011;8206;51.440;6.914;2023-04-24T02:06:10;1.67;;;1.57;;
16197;SDS011;8206;51.440;6.914;2023-04-24T02:08:37;1.93;;;1.83;;
16197;SDS011;8206;51.440;6.914;2023-04-24T02:11:03;2.60;;;2.20;;
16197;SDS011;8206;51.440;6.914;2023-04-24T02:13:31;1.60;;;1.40;;
16197;SDS011;8206;51.440;6.914;2023-04-24T02:15:59;1.40;;;1.40;;
16197;SDS011;8206;51.440;6.914;2023-04-24T02:18:25;0.60;;;0.60;;
16197;SDS011;8206;51.440;6.914;2023-04-24T02:20:52;1.50;;;1.50;;
16197;SDS011;8206;51.440;6.914;2023-04-24T02:23:19;1.37;;;1.37;;
16197;SDS011;8206;51.440;6.914;2023-04-24T02:25:47;1.70;;;1.60;;
16197;SDS011;8206;51.440;6.914;2023-04-24T02:28:13;2.33;;;2.20;;
16197;SDS011;8206;51.440;6.914;2023-04-24T02:30:40;1.60;;;1.50;;
16197;SDS011;8206;51.440;6.914;2023-04-24T02:33:08;4.47;;;2.00;;
16197;SDS011;8206;51.440;6.914;2023-04-24T02:35:35;2.43;;;2.23;;
16197;SDS011;8206;51.440;6.914;2023-04-24T02:38:01;1.63;;;1.63;;
16197;SDS011;8206;51.440;6.914;2023-04-24T02:40:28;3.80;;;1.47;;
16197;SDS011;8206;51.440;6.914;2023-04-24T02:42:55;5.13;;;1.63;;
16197;SDS011;8206;51.440;6.914;2023-04-24T02:45:21;1.50;;;1.43;;
16197;SDS011;8206;51.440;6.914;2023-04-24T02:47:48;4.93;;;2.50;;
16197;SDS011;8206;51.440;6.914;2023-04-24T02:50:16;3.20;;;2.53;;
16197;SDS011;8206;51.440;6.914;2023-04-24T02:52:43;3.20;;;2.90;;
16197;SDS011;8206;51.440;6.914;2023-04-24T02:55:10;3.07;;;2.17;;
16197;SDS011;8206;51.440;6.914;2023-04-24T02:57:36;2.17;;;1.97;;
16197;SDS011;8206;51.440;6.914;2023-04-24T03:00:03;3.47;;;3.10;;
16197;SDS011;8206;51.440;6.914;2023-04-24T03:02:32;2.07;;;1.97;;
16197;SDS011;8206;51.440;6.914;2023-04-24T03:04:58;1.80;;;1.70;;
16197;SDS011;8206;51.440;6.914;2023-04-24T03:07:27;2.63;;;2.43;;
16197;SDS011;8206;51.440;6.914;2023-04-24T03:09:53;2.10;;;1.27;;
16197;SDS011;8206;51.440;6.914;2023-04-24T03:12:20;2.50;;;2.17;;
16197;SDS011;8206;51.440;6.914;2023-04-24T03:14:48;1.83;;;1.80;;
16197;SDS011;8206;51.440;6.914;2023-04-24T03:17:15;3.73;;;3.47;;
16197;SDS011;8206;51.440;6.914;2023-04-24T03:19:42;14.00;;;3.77;;
16197;SDS011;8206;51.440;6.914;2023-04-24T03:22:08;1.90;;;1.80;;
16197;SDS011;8206;51.440;6.914;2023-04-24T03:24:37;2.53;;;2.43;;
16197;SDS011;8206;51.440;6.914;2023-04-24T03:27:04;3.13;;;2.83;;
16197;SDS011;8206;51.440;6.914;2023-04-24T03:29:30;5.30;;;3.27;;
16197;SDS011;8206;51.440;6.914;2023-04-24T03:31:57;4.97;;;2.37;;
16197;SDS011;8206;51.440;6.914;2023-04-24T03:34:24;1.80;;;1.70;;
16197;SDS011;8206;51.440;6.914;2023-04-24T03:36:50;2.33;;;2.20;;
16197;SDS011;8206;51.440;6.914;2023-04-24T03:39:17;2.20;;;2.10;;
16197;SDS011;8206;51.440;6.914;2023-04-24T03:41:45;2.63;;;2.43;;
16197;SDS011;8206;51.440;6.914;2023-04-24T03:44:12;3.03;;;2.57;;
16197;SDS011;8206;51.440;6.914;2023-04-24T03:46:39;1.50;;;1.50;;
16197;SDS011;8206;51.440;6.914;2023-04-24T03:49:05;3.40;;;2.57;;
16197;SDS011;8206;51.440;6.914;2023-04-24T03:51:32;7.53;;;3.53;;
16197;SDS011;8206;51.440;6.914;2023-04-24T03:53:58;2.70;;;1.83;;
16197;SDS011;8206;51.440;6.914;2023-04-24T03:56:25;6.90;;;2.50;;
16197;SDS011;8206;51.440;6.914;2023-04-24T03:58:53;5.57;;;3.47;;
16197;SDS011;8206;51.440;6.914;2023-04-24T04:01:20;3.67;;;3.37;;
16197;SDS011;8206;51.440;6.914;2023-04-24T04:03:47;4.43;;;2.37;;
16197;SDS011;8206;51.440;6.914;2023-04-24T04:06:13;3.07;;;2.70;;
16197;SDS011;8206;51.440;6.914;2023-04-24T04:08:40;1.70;;;1.60;;
16197;SDS011;8206;51.440;6.914;2023-04-24T04:11:07;3.30;;;3.07;;
16197;SDS011;8206;51.440;6.914;2023-04-24T04:13:34;11.60;;;2.33;;
16197;SDS011;8206;51.440;6.914;2023-04-24T04:16:02;4.77;;;2.33;;
16197;SDS011;8206;51.440;6.914;2023-04-24T04:18:28;1.53;;;1.43;;
16197;SDS011;8206;51.440;6.914;2023-04-24T04:20:55;1.90;;;1.67;;
16197;SDS011;8206;51.440;6.914;2023-04-24T04:23:22;2.20;;;2.00;;
16197;SDS011;8206;51.440;6.914;2023-04-24T04:25:49;8.23;;;3.47;;
16197;SDS011;8206;51.440;6.914;2023-04-24T04:28:16;2.50;;;2.17;;
16197;SDS011;8206;51.440;6.914;2023-04-24T04:30:44;2.53;;;2.43;;
16197;SDS011;8206;51.440;6.914;2023-04-24T04:33:13;2.37;;;2.17;;
16197;SDS011;8206;51.440;6.914;2023-04-24T04:35:40;5.10;;;2.80;;
16197;SDS011;8206;51.440;6.914;2023-04-24T04:38:07;1.83;;;1.73;;
16197;SDS011;8206;51.440;6.914;2023-04-24T04:40:35;3.23;;;2.97;;
16197;SDS011;8206;51.440;6.914;2023-04-24T04:43:02;2.23;;;2.03;;
16197;SDS011;8206;51.440;6.914;2023-04-24T04:45:29;4.03;;;2.73;;
16197;SDS011;8206;51.440;6.914;2023-04-24T04:47:57;2.10;;;2.03;;
16197;SDS011;8206;51.440;6.914;2023-04-24T04:50:27;2.13;;;2.03;;
16197;SDS011;8206;51.440;6.914;2023-04-24T04:52:53;2.40;;;2.30;;
16197;SDS011;8206;51.440;6.914;2023-04-24T04:55:20;2.87;;;2.67;;
16197;SDS011;8206;51.440;6.914;2023-04-24T04:57:47;4.30;;;2.83;;
16197;SDS011;8206;51.440;6.914;2023-04-24T05:00:14;6.43;;;4.03;;
16197;SDS011;8206;51.440;6.914;2023-04-24T05:02:41;1.40;;;1.40;;
16197;SDS011;8206;51.440;6.914;2023-04-24T05:05:07;1.20;;;1.10;;
16197;SDS011;8206;51.440;6.914;2023-04-24T05:07:36;5.50;;;2.20;;
16197;SDS011;8206;51.440;6.914;2023-04-24T05:10:03;1.83;;;1.83;;
16197;SDS011;8206;51.440;6.914;2023-04-24T05:12:30;2.07;;;1.97;;
16197;SDS011;8206;51.440;6.914;2023-04-24T05:14:57;3.15;;;2.95;;
16197;SDS011;8206;51.440;6.914;2023-04-24T05:17:24;3.43;;;2.23;;
16197;SDS011;8206;51.440;6.914;2023-04-24T05:19:50;2.40;;;2.30;;
16197;SDS011;8206;51.440;6.914;2023-04-24T05:22:17;2.57;;;2.47;;
16197;SDS011;8206;51.440;6.914;2023-04-24T05:24:47;1.87;;;1.77;;
16197;SDS011;8206;51.440;6.914;2023-04-24T05:27:14;3.13;;;2.87;;
16197;SDS011;8206;51.440;6.914;2023-04-24T05:29:40;0.80;;;0.80;;
16197;SDS011;8206;51.440;6.914;2023-04-24T05:32:08;2.03;;;1.60;;
16197;SDS011;8206;51.440;6.914;2023-04-24T05:34:35;2.23;;;2.03;;
16197;SDS011;8206;51.440;6.914;2023-04-24T05:37:01;11.17;;;1.87;;
16197;SDS011;8206;51.440;6.914;2023-04-24T05:39:28;1.77;;;1.77;;
16197;SDS011;8206;51.440;6.914;2023-04-24T05:41:56;2.50;;;2.30;;
16197;SDS011;8206;51.440;6.914;2023-04-24T05:44:24;3.07;;;2.80;;
16197;SDS011;8206;51.440;6.914;2023-04-24T05:46:51;35.47;;;3.80;;
16197;SDS011;8206;51.440;6.914;2023-04-24T05:49:17;4.03;;;2.30;;
16197;SDS011;8206;51.440;6.914;2023-04-24T05:51:44;8.63;;;3.33;;
16197;SDS011;8206;51.440;6.914;2023-04-24T05:54:11;2.23;;;2.13;;
16197;SDS011;8206;51.440;6.914;2023-04-24T05:56:37;2.90;;;2.70;;
16197;SDS011;8206;51.440;6.914;2023-04-24T05:59:05;2.43;;;2.33;;
16197;SDS011;8206;51.440;6.914;2023-04-24T06:01:33;1.80;;;1.70;;
16197;SDS011;8206;51.440;6.914;2023-04-24T06:04:01;2.50;;;2.27;;
16197;SDS011;8206;51.440;6.914;2023-04-24T06:06:28;6.83;;;2.60;;
16197;SDS011;8206;51.440;6.914;2023-04-24T06:08:55;1.90;;;1.80;;
16197;SDS011;8206;51.440;6.914;2023-04-24T06:11:23;2.70;;;2.00;;
16197;SDS011;8206;51.440;6.914;2023-04-24T06:13:50;10.03;;;3.03;;
16197;SDS011;8206;51.440;6.914;2023-04-24T06:16:18;2.20;;;2.10;;
16197;SDS011;8206;51.440;6.914;2023-04-24T06:18:45;4.17;;;3.07;;
16197;SDS011;8206;51.440;6.914;2023-04-24T06:21:12;2.67;;;2.57;;
16197;SDS011;8206;51.440;6.914;2023-04-24T06:23:39;3.70;;;1.83;;
16197;SDS011;8206;51.440;6.914;2023-04-24T06:26:06;3.80;;;1.70;;
16197;SDS011;8206;51.440;6.914;2023-04-24T06:28:32;2.30;;;2.20;;
16197;SDS011;8206;51.440;6.914;2023-04-24T06:31:00;1.80;;;1.57;;
16197;SDS011;8206;51.440;6.914;2023-04-24T06:33:28;1.53;;;1.53;;
16197;SDS011;8206;51.440;6.914;2023-04-24T06:35:54;2.70;;;2.40;;
16197;SDS011;8206;51.440;6.914;2023-04-24T06:38:21;1.47;;;1.37;;
16197;SDS011;8206;51.440;6.914;2023-04-24T06:40:48;1.97;;;1.77;;
16197;SDS011;8206;51.440;6.914;2023-04-24T06:43:15;3.07;;;2.33;;
16197;SDS011;8206;51.440;6.914;2023-04-24T06:45:41;2.00;;;1.90;;
16197;SDS011;8206;51.440;6.914;2023-04-24T06:48:09;2.23;;;1.20;;
16197;SDS011;8206;51.440;6.914;2023-04-24T06:50:37;1.90;;;1.80;;
16197;SDS011;8206;51.440;6.914;2023-04-24T06:53:04;2.40;;;2.20;;
16197;SDS011;8206;51.440;6.914;2023-04-24T06:55:30;0.90;;;0.90;;
16197;SDS011;8206;51.440;6.914;2023-04-24T06:57:57;1.13;;;1.13;;
16197;SDS011;8206;51.440;6.914;2023-04-24T07:00:24;1.60;;;1.50;;
16197;SDS011;8206;51.440;6.914;2023-04-24T07:02:51;2.03;;;1.93;;
16197;SDS011;8206;51.440;6.914;2023-04-24T07:05:17;1.60;;;1.53;;
16197;SDS011;8206;51.440;6.914;2023-04-24T07:07:47;1.47;;;1.47;;
16197;SDS011;8206;51.440;6.914;2023-04-24T07:10:14;3.00;;;1.00;;
16197;SDS011;8206;51.440;6.914;2023-04-24T07:12:41;2.30;;;1.77;;
16197;SDS011;8206;51.440;6.914;2023-04-24T07:15:08;1.20;;;1.20;;
16197;SDS011;8206;51.440;6.914;2023-04-24T07:17:35;1.10;;;1.10;;
16197;SDS011;8206;51.440;6.914;2023-04-24T07:20:03;1.43;;;1.43;;
16197;SDS011;8206;51.440;6.914;2023-04-24T07:22:34;1.30;;;1.30;;
16197;SDS011;8206;51.440;6.914;2023-04-24T07:25:02;0.90;;;0.90;;
16197;SDS011;8206;51.440;6.914;2023-04-24T07:27:29;0.60;;;0.60;;
16197;SDS011;8206;51.440;6.914;2023-04-24T07:29:56;1.73;;;1.70;;
16197;SDS011;8206;51.440;6.914;2023-04-24T07:32:23;1.17;;;1.17;;
16197;SDS011;8206;51.440;6.914;2023-04-24T07:34:50;0.80;;;0.80;;
16197;SDS011;8206;51.440;6.914;2023-04-24T07:37:16;3.03;;;0.50;;
16197;SDS011;8206;51.440;6.914;2023-04-24T07:39:43;0.97;;;0.97;;
16197;SDS011;8206;51.440;6.914;2023-04-24T07:42:11;1.00;;;1.00;;
16197;SDS011;8206;51.440;6.914;2023-04-24T07:44:38;1.07;;;1.00;;
16197;SDS011;8206;51.440;6.914;2023-04-24T07:47:04;0.33;;;0.33;;
16197;SDS011;8206;51.440;6.914;2023-04-24T07:49:31;0.93;;;0.93;;
16197;SDS011;8206;51.440;6.914;2023-04-24T07:51:59;0.37;;;0.37;;
16197;SDS011;8206;51.440;6.914;2023-04-24T07:54:27;2.57;;;0.90;;
16197;SDS011;8206;51.440;6.914;2023-04-24T07:56:54;0.40;;;0.40;;
16197;SDS011;8206;51.440;6.914;2023-04-24T07:59:22;0.90;;;0.90;;
16197;SDS011;8206;51.440;6.914;2023-04-24T08:01:49;0.43;;;0.43;;
16197;SDS011;8206;51.440;6.914;2023-04-24T08:04:16;0.60;;;0.60;;
16197;SDS011;8206;51.440;6.914;2023-04-24T08:06:42;0.50;;;0.50;;
16197;SDS011;8206;51.440;6.914;2023-04-24T08:09:09;0.50;;;0.50;;
16197;SDS011;8206;51.440;6.914;2023-04-24T08:11:36;0.50;;;0.50;;
16197;SDS011;8206;51.440;6.914;2023-04-24T08:14:03;0.50;;;0.50;;
16197;SDS011;8206;51.440;6.914;2023-04-24T08:16:31;0.30;;;0.30;;
16197;SDS011;8206;51.440;6.914;2023-04-24T08:18:58;0.50;;;0.50;;
16197;SDS011;8206;51.440;6.914;2023-04-24T08:21:25;0.43;;;0.43;;
16197;SDS011;8206;51.440;6.914;2023-04-24T08:23:52;0.30;;;0.30;;
16197;SDS011;8206;51.440;6.914;2023-04-24T08:26:18;0.23;;;0.23;;
16197;SDS011;8206;51.440;6.914;2023-04-24T08:28:45;0.60;;;0.60;;
16197;SDS011;8206;51.440;6.914;2023-04-24T08:31:12;0.53;;;0.53;;
16197;SDS011;8206;51.440;6.914;2023-04-24T08:33:40;0.67;;;0.67;;
16197;SDS011;8206;51.440;6.914;2023-04-24T08:36:07;0.40;;;0.40;;
16197;SDS011;8206;51.440;6.914;2023-04-24T08:38:33;0.67;;;0.67;;
16197;SDS011;8206;51.440;6.914;2023-04-24T08:41:00;0.50;;;0.50;;
16197;SDS011;8206;51.440;6.914;2023-04-24T08:43:29;0.57;;;0.57;;
16197;SDS011;8206;51.440;6.914;2023-04-24T08:45:59;1.33;;;1.03;;
16197;SDS011;8206;51.440;6.914;2023-04-24T08:48:26;0.80;;;0.80;;
16197;SDS011;8206;51.440;6.914;2023-04-24T08:50:55;0.43;;;0.43;;
16197;SDS011;8206;51.440;6.914;2023-04-24T08:53:22;0.90;;;0.90;;
16197;SDS011;8206;51.440;6.914;2023-04-24T08:55:51;0.40;;;0.40;;
16197;SDS011;8206;51.440;6.914;2023-04-24T08:58:20;0.50;;;0.50;;
16197;SDS011;8206;51.440;6.914;2023-04-24T09:00:47;0.50;;;0.50;;
16197;SDS011;8206;51.440;6.914;2023-04-24T09:03:14;0.50;;;0.50;;
16197;SDS011;8206;51.440;6.914;2023-04-24T09:05:42;1.33;;;1.33;;
16197;SDS011;8206;51.440;6.914;2023-04-24T09:08:12;0.40;;;0.40;;
16197;SDS011;8206;51.440;6.914;2023-04-24T09:10:39;0.50;;;0.50;;
16197;SDS011;8206;51.440;6.914;2023-04-24T09:13:06;0.30;;;0.30;;
16197;SDS011;8206;51.440;6.914;2023-04-24T09:15:35;0.60;;;0.50;;
16197;SDS011;8206;51.440;6.914;2023-04-24T09:18:02;0.47;;;0.47;;
16197;SDS011;8206;51.440;6.914;2023-04-24T09:20:30;0.80;;;0.80;;
16197;SDS011;8206;51.440;6.914;2023-04-24T09:22:57;1.80;;;1.27;;
16197;SDS011;8206;51.440;6.914;2023-04-24T09:25:26;1.97;;;1.87;;
16197;SDS011;8206;51.440;6.914;2023-04-24T09:28:00;1.00;;;1.00;;
16197;SDS011;8206;51.440;6.914;2023-04-24T09:30:27;1.00;;;1.00;;
16197;SDS011;8206;51.440;6.914;2023-04-24T09:33:10;4.10;;;1.93;;
16197;SDS011;8206;51.440;6.914;2023-04-24T09:35:40;11.83;;;2.03;;
16197;SDS011;8206;51.440;6.914;2023-04-24T09:38:07;2.57;;;1.30;;
16197;SDS011;8206;51.440;6.914;2023-04-24T09:40:35;1.43;;;1.30;;
16197;SDS011;8206;51.440;6.914;2023-04-24T09:43:02;1.20;;;1.20;;
16197;SDS011;8206;51.440;6.914;2023-04-24T09:45:35;6.03;;;1.73;;
16197;SDS011;8206;51.440;6.914;2023-04-24T09:48:02;0.60;;;0.60;;
16197;SDS011;8206;51.440;6.914;2023-04-24T09:50:30;1.70;;;1.60;;
16197;SDS011;8206;51.440;6.914;2023-04-24T09:53:01;1.63;;;1.53;;
16197;SDS011;8206;51.440;6.914;2023-04-24T09:55:29;2.83;;;2.33;;
16197;SDS011;8206;51.440;6.914;2023-04-24T09:57:58;1.90;;;1.80;;
16197;SDS011;8206;51.440;6.914;2023-04-24T10:00:27;1.40;;;1.40;;
16197;SDS011;8206;51.440;6.914;2023-04-24T10:02:54;1.40;;;1.37;;
16197;SDS011;8206;51.440;6.914;2023-04-24T10:05:27;2.70;;;2.50;;
16197;SDS011;8206;51.440;6.914;2023-04-24T10:07:57;0.90;;;0.90;;
16197;SDS011;8206;51.440;6.914;2023-04-24T10:10:28;1.60;;;1.17;;
16197;SDS011;8206;51.440;6.914;2023-04-24T10:12:55;1.23;;;1.23;;
16197;SDS011;8206;51.440;6.914;2023-04-24T10:15:23;2.03;;;1.93;;
16197;SDS011;8206;51.440;6.914;2023-04-24T10:17:52;3.70;;;2.23;;
16197;SDS011;8206;51.440;6.914;2023-04-24T10:20:19;1.60;;;1.53;;
16197;SDS011;8206;51.440;6.914;2023-04-24T10:22:48;2.07;;;1.30;;
16197;SDS011;8206;51.440;6.914;2023-04-24T10:25:19;2.37;;;2.00;;
16197;SDS011;8206;51.440;6.914;2023-04-24T10:27:47;3.23;;;3.03;;
16197;SDS011;8206;51.440;6.914;2023-04-24T10:30:15;2.00;;;1.90;;
16197;SDS011;8206;51.440;6.914;2023-04-24T10:32:43;1.37;;;1.37;;
16197;SDS011;8206;51.440;6.914;2023-04-24T10:35:11;2.10;;;2.00;;
16197;SDS011;8206;51.440;6.914;2023-04-24T10:37:40;1.53;;;1.43;;
16197;SDS011;8206;51.440;6.914;2023-04-24T10:40:10;3.00;;;1.77;;
16197;SDS011;8206;51.440;6.914;2023-04-24T10:42:41;1.03;;;1.00;;
16197;SDS011;8206;51.440;6.914;2023-04-24T10:45:15;1.87;;;1.77;;
16197;SDS011;8206;51.440;6.914;2023-04-24T10:47:44;3.30;;;3.07;;
16197;SDS011;8206;51.440;6.914;2023-04-24T10:50:17;1.33;;;1.33;;
16197;SDS011;8206;51.440;6.914;2023-04-24T10:52:44;1.97;;;1.87;;
16197;SDS011;8206;51.440;6.914;2023-04-24T10:55:12;1.33;;;1.33;;
16197;SDS011;8206;51.440;6.914;2023-04-24T10:57:39;1.80;;;1.80;;
16197;SDS011;8206;51.440;6.914;2023-04-24T11:00:10;1.20;;;1.20;;
16197;SDS011;8206;51.440;6.914;2023-04-24T11:02:40;0.57;;;0.57;;
16197;SDS011;8206;51.440;6.914;2023-04-24T11:05:14;1.03;;;0.73;;
16197;SDS011;8206;51.440;6.914;2023-04-24T11:10:37;2.40;;;2.20;;
16197;SDS011;8206;51.440;6.914;2023-04-24T11:13:09;5.83;;;2.67;;
16197;SDS011;8206;51.440;6.914;2023-04-24T11:15:36;4.03;;;2.03;;
16197;SDS011;8206;51.440;6.914;2023-04-24T11:18:02;0.50;;;0.50;;
16197;SDS011;8206;51.440;6.914;2023-04-24T11:20:31;5.43;;;2.60;;
16197;SDS011;8206;51.440;6.914;2023-04-24T11:22:58;6.97;;;1.83;;
16197;SDS011;8206;51.440;6.914;2023-04-24T11:25:30;1.93;;;1.83;;
16197;SDS011;8206;51.440;6.914;2023-04-24T11:28:02;5.97;;;3.33;;
16197;SDS011;8206;51.440;6.914;2023-04-24T11:30:31;1.20;;;1.10;;
16197;SDS011;8206;51.440;6.914;2023-04-24T11:33:01;3.70;;;2.97;;
16197;SDS011;8206;51.440;6.914;2023-04-24T11:35:30;1.13;;;1.13;;
16197;SDS011;8206;51.440;6.914;2023-04-24T11:38:03;1.80;;;1.70;;
16197;SDS011;8206;51.440;6.914;2023-04-24T11:40:30;16.53;;;1.87;;
16197;SDS011;8206;51.440;6.914;2023-04-24T11:42:59;3.30;;;1.53;;
16197;SDS011;8206;51.440;6.914;2023-04-24T11:45:28;6.03;;;2.57;;
16197;SDS011;8206;51.440;6.914;2023-04-24T11:47:55;1.47;;;1.47;;
16197;SDS011;8206;51.440;6.914;2023-04-24T11:50:24;1.73;;;1.63;;
16197;SDS011;8206;51.440;6.914;2023-04-24T11:52:54;0.70;;;0.70;;
16197;SDS011;8206;51.440;6.914;2023-04-24T11:55:25;1.00;;;1.00;;
16197;SDS011;8206;51.440;6.914;2023-04-24T11:57:53;2.13;;;1.97;;
16197;SDS011;8206;51.440;6.914;2023-04-24T12:00:22;8.20;;;3.30;;
16197;SDS011;8206;51.440;6.914;2023-04-24T12:02:50;2.07;;;1.83;;
16197;SDS011;8206;51.440;6.914;2023-04-24T12:05:30;3.10;;;1.77;;
16197;SDS011;8206;51.440;6.914;2023-04-24T12:07:58;2.03;;;1.93;;
16197;SDS011;8206;51.440;6.914;2023-04-24T12:10:26;1.40;;;1.30;;
16197;SDS011;8206;51.440;6.914;2023-04-24T12:12:54;2.20;;;1.30;;
16197;SDS011;8206;51.440;6.914;2023-04-24T12:15:22;3.50;;;0.93;;
16197;SDS011;8206;51.440;6.914;2023-04-24T12:17:50;1.30;;;1.27;;
16197;SDS011;8206;51.440;6.914;2023-04-24T12:20:23;2.43;;;2.30;;
16197;SDS011;8206;51.440;6.914;2023-04-24T12:22:51;1.40;;;1.40;;
16197;SDS011;8206;51.440;6.914;2023-04-24T12:25:21;2.63;;;2.43;;
16197;SDS011;8206;51.440;6.914;2023-04-24T12:27:52;6.60;;;3.33;;
16197;SDS011;8206;51.440;6.914;2023-04-24T12:30:19;3.37;;;2.33;;
16197;SDS011;8206;51.440;6.914;2023-04-24T12:32:47;2.00;;;1.90;;
16197;SDS011;8206;51.440;6.914;2023-04-24T12:35:18;2.17;;;2.07;;
16197;SDS011;8206;51.440;6.914;2023-04-24T12:37:46;1.50;;;1.40;;
16197;SDS011;8206;51.440;6.914;2023-04-24T12:40:13;2.00;;;1.33;;
16197;SDS011;8206;51.440;6.914;2023-04-24T12:42:43;3.07;;;2.83;;
16197;SDS011;8206;51.440;6.914;2023-04-24T12:45:10;8.20;;;2.63;;
16197;SDS011;8206;51.440;6.914;2023-04-24T12:47:38;1.97;;;1.87;;
16197;SDS011;8206;51.440;6.914;2023-04-24T12:50:06;2.53;;;2.33;;
16197;SDS011;8206;51.440;6.914;2023-04-24T12:52:33;1.90;;;1.77;;
16197;SDS011;8206;51.440;6.914;2023-04-24T12:55:00;1.43;;;1.37;;
16197;SDS011;8206;51.440;6.914;2023-04-24T12:57:28;0.57;;;0.57;;
16197;SDS011;8206;51.440;6.914;2023-04-24T12:59:57;6.33;;;1.37;;
16197;SDS011;8206;51.440;6.914;2023-04-24T13:02:25;0.80;;;0.80;;
16197;SDS011;8206;51.440;6.914;2023-04-24T13:04:53;1.03;;;1.03;;
16197;SDS011;8206;51.440;6.914;2023-04-24T13:07:19;1.23;;;1.23;;
16197;SDS011;8206;51.440;6.914;2023-04-24T13:09:47;0.80;;;0.80;;
16197;SDS011;8206;51.440;6.914;2023-04-24T13:12:14;1.53;;;1.43;;
16197;SDS011;8206;51.440;6.914;2023-04-24T13:14:41;1.30;;;1.10;;
16197;SDS011;8206;51.440;6.914;2023-04-24T13:17:09;0.67;;;0.67;;
16197;SDS011;8206;51.440;6.914;2023-04-24T13:19:37;0.60;;;0.60;;
16197;SDS011;8206;51.440;6.914;2023-04-24T13:22:04;0.50;;;0.50;;
16197;SDS011;8206;51.440;6.914;2023-04-24T13:24:31;0.93;;;0.93;;
16197;SDS011;8206;51.440;6.914;2023-04-24T13:26:58;0.80;;;0.80;;
16197;SDS011;8206;51.440;6.914;2023-04-24T13:29:25;1.63;;;1.53;;
16197;SDS011;8206;51.440;6.914;2023-04-24T13:31:52;0.90;;;0.90;;
16197;SDS011;8206;51.440;6.914;2023-04-24T13:34:21;3.73;;;2.33;;
16197;SDS011;8206;51.440;6.914;2023-04-24T13:36:48;0.67;;;0.67;;
16197;SDS011;8206;51.440;6.914;2023-04-24T13:39:16;0.60;;;0.60;;
16197;SDS011;8206;51.440;6.914;2023-04-24T13:41:42;0.50;;;0.50;;
16197;SDS011;8206;51.440;6.914;2023-04-24T13:44:10;0.67;;;0.67;;
16197;SDS011;8206;51.440;6.914;2023-04-24T13:46:36;0.80;;;0.80;;
16197;SDS011;8206;51.440;6.914;2023-04-24T13:49:03;1.57;;;1.57;;
16197;SDS011;8206;51.440;6.914;2023-04-24T13:51:32;1.13;;;1.13;;
16197;SDS011;8206;51.440;6.914;2023-04-24T13:53:59;0.83;;;0.83;;
16197;SDS011;8206;51.440;6.914;2023-04-24T13:56:25;1.60;;;1.53;;
16197;SDS011;8206;51.440;6.914;2023-04-24T13:58:52;0.60;;;0.60;;
16197;SDS011;8206;51.440;6.914;2023-04-24T14:01:19;2.30;;;1.20;;
16197;SDS011;8206;51.440;6.914;2023-04-24T14:03:49;0.40;;;0.40;;
16197;SDS011;8206;51.440;6.914;2023-04-24T14:06:16;1.40;;;1.10;;
16197;SDS011;8206;51.440;6.914;2023-04-24T14:08:44;0.53;;;0.53;;
16197;SDS011;8206;51.440;6.914;2023-04-24T14:11:11;0.50;;;0.50;;
16197;SDS011;8206;51.440;6.914;2023-04-24T14:13:38;0.70;;;0.70;;
16197;SDS011;8206;51.440;6.914;2023-04-24T14:16:06;1.30;;;1.30;;
16197;SDS011;8206;51.440;6.914;2023-04-24T14:18:33;1.37;;;1.07;;
16197;SDS011;8206;51.440;6.914;2023-04-24T14:21:01;0.93;;;0.93;;
16197;SDS011;8206;51.440;6.914;2023-04-24T14:23:27;0.57;;;0.57;;
16197;SDS011;8206;51.440;6.914;2023-04-24T14:25:55;0.63;;;0.63;;
16197;SDS011;8206;51.440;6.914;2023-04-24T14:28:23;0.50;;;0.50;;
16197;SDS011;8206;51.440;6.914;2023-04-24T14:30:51;1.10;;;1.10;;
16197;SDS011;8206;51.440;6.914;2023-04-24T14:33:18;0.53;;;0.53;;
16197;SDS011;8206;51.440;6.914;2023-04-24T14:35:45;0.60;;;0.60;;
16197;SDS011;8206;51.440;6.914;2023-04-24T14:38:12;0.80;;;0.80;;
16197;SDS011;8206;51.440;6.914;2023-04-24T14:40:39;0.67;;;0.67;;
16197;SDS011;8206;51.440;6.914;2023-04-24T14:43:07;0.67;;;0.67;;
16197;SDS011;8206;51.440;6.914;2023-04-24T14:45:34;2.20;;;0.87;;
16197;SDS011;8206;51.440;6.914;2023-04-24T14:48:02;0.70;;;0.70;;
16197;SDS011;8206;51.440;6.914;2023-04-24T14:50:29;0.90;;;0.90;;
16197;SDS011;8206;51.440;6.914;2023-04-24T14:52:56;0.93;;;0.93;;
16197;SDS011;8206;51.440;6.914;2023-04-24T14:55:23;1.23;;;1.23;;
16197;SDS011;8206;51.440;6.914;2023-04-24T14:57:50;0.73;;;0.73;;
16197;SDS011;8206;51.440;6.914;2023-04-24T15:00:19;0.50;;;0.50;;
16197;SDS011;8206;51.440;6.914;2023-04-24T15:02:48;0.60;;;0.60;;
16197;SDS011;8206;51.440;6.914;2023-04-24T15:05:14;0.90;;;0.90;;